Time;durP1;ratioP1;P1;durP2;ratioP2;P2;SDS_P1;SDS_P2;PMS_P1;PMS_P2;Temp;Humidity;BMP_temperature;BMP_pressure;BME280_temperature;BME280_humidity;BME280_pressure;Samples;Min_cycle;Max_cycle;Signal;HPM_P1;HPM_P2
2021/10/16 00:01:51;;;;;;;11.55;4.40;;;11.20;99.90;;;;;;5116481;27;20110;-73
2021/10/16 00:04:17;;;;;;;11.73;3.72;;;11.10;99.90;;;;;;5133710;27;20027;-75
2021/10/16 00:06:43;;;;;;;12.30;4.13;;;11.20;99.90;;;;;;5115439;27;20493;-67
2021/10/16 00:09:08;;;;;;;12.30;3.90;;;11.20;99.90;;;;;;5099316;27;20034;-68
2021/10/16 00:11:34;;;;;;;13.57;3.55;;;11.20;99.90;;;;;;5116286;27;20031;-66
2021/10/16 00:13:59;;;;;;;12.18;3.60;;;11.20;99.90;;;;;;5116065;27;20035;-74
2021/10/16 00:16:25;;;;;;;17.23;4.10;;;11.20;99.90;;;;;;5133259;27;20019;-71
2021/10/16 00:18:51;;;;;;;10.50;3.40;;;11.20;99.90;;;;;;5133208;27;20420;-68
2021/10/16 00:21:17;;;;;;;26.92;5.63;;;11.20;99.90;;;;;;5099229;28;20051;-71
2021/10/16 00:23:42;;;;;;;7.53;3.28;;;11.30;99.90;;;;;;5133048;27;20058;-68
2021/10/16 00:26:08;;;;;;;11.20;3.33;;;11.30;99.90;;;;;;5134432;27;20492;-67
2021/10/16 00:28:33;;;;;;;13.70;4.78;;;11.30;99.90;;;;;;5134435;27;20042;-68
2021/10/16 00:30:59;;;;;;;12.05;3.45;;;11.30;99.90;;;;;;5134790;27;20385;-67
2021/10/16 00:33:25;;;;;;;9.10;3.05;;;11.30;99.90;;;;;;5133155;28;20031;-67
2021/10/16 00:35:51;;;;;;;15.40;4.05;;;11.30;99.90;;;;;;5116042;28;20538;-68
2021/10/16 00:38:16;;;;;;;9.70;4.03;;;11.40;99.90;;;;;;5115942;28;20027;-67
2021/10/16 00:40:42;;;;;;;11.45;3.50;;;11.30;99.90;;;;;;5116701;28;20031;-68
2021/10/16 00:43:09;;;;;;;16.48;3.30;;;11.40;99.90;;;;;;5133191;28;20061;-68
2021/10/16 00:45:35;;;;;;;8.80;3.63;;;11.40;99.90;;;;;;5115726;28;20035;-68
2021/10/16 00:48:00;;;;;;;6.85;3.00;;;11.40;99.90;;;;;;5098937;28;20023;-67
2021/10/16 00:50:26;;;;;;;9.07;3.00;;;11.40;99.90;;;;;;5132965;28;20023;-67
2021/10/16 00:52:52;;;;;;;13.43;3.97;;;11.40;99.90;;;;;;5115763;28;20382;-68
2021/10/16 00:55:20;;;;;;;8.13;3.33;;;11.50;99.90;;;;;;5132876;28;20080;-67
2021/10/16 00:57:46;;;;;;;9.05;2.97;;;11.40;99.90;;;;;;5115720;28;20106;-67
2021/10/16 01:00:13;;;;;;;7.55;3.25;;;11.50;99.90;;;;;;5132845;28;20031;-68
2021/10/16 01:02:39;;;;;;;10.63;3.10;;;11.50;99.90;;;;;;5115460;28;20106;-67
2021/10/16 01:05:06;;;;;;;14.32;3.33;;;11.50;99.90;;;;;;5133075;28;20023;-67
2021/10/16 01:07:32;;;;;;;7.55;3.33;;;11.50;99.90;;;;;;5132607;28;20027;-67
2021/10/16 01:09:58;;;;;;;10.02;3.72;;;11.50;99.90;;;;;;5115531;28;20507;-68
2021/10/16 01:12:24;;;;;;;6.95;2.83;;;11.50;99.90;;;;;;5115501;28;20366;-67
2021/10/16 01:15:12;;;;;;;11.77;3.00;;;11.50;99.90;;;;;;5133128;28;20023;-68
2021/10/16 01:17:38;;;;;;;8.68;3.20;;;11.50;99.90;;;;;;5132621;27;20107;-68
2021/10/16 01:20:08;;;;;;;7.35;3.33;;;11.50;99.90;;;;;;5119656;27;20055;-67
2021/10/16 01:22:36;;;;;;;9.18;2.83;;;11.50;99.90;;;;;;5137470;27;20496;-69
2021/10/16 01:25:06;;;;;;;6.95;2.20;;;11.50;99.90;;;;;;5119091;27;20031;-68
2021/10/16 01:27:33;;;;;;;12.85;3.17;;;11.50;99.90;;;;;;5135989;27;20196;-70
2021/10/16 01:29:59;;;;;;;11.35;3.70;;;11.50;99.90;;;;;;5119038;27;20499;-67
2021/10/16 01:32:24;;;;;;;12.15;3.20;;;11.50;99.90;;;;;;5135987;27;20110;-67
2021/10/16 01:34:50;;;;;;;6.72;2.50;;;11.50;99.90;;;;;;5136325;27;20028;-67
2021/10/16 01:37:16;;;;;;;15.63;3.40;;;11.50;99.90;;;;;;5118749;27;20026;-67
2021/10/16 01:39:41;;;;;;;9.93;2.65;;;11.50;99.90;;;;;;5137646;27;20027;-67
2021/10/16 01:42:12;;;;;;;8.43;2.53;;;11.50;99.90;;;;;;5135932;27;20028;-67
2021/10/16 01:44:39;;;;;;;12.02;2.25;;;11.60;99.90;;;;;;5135888;27;20048;-67
2021/10/16 01:47:05;;;;;;;5.93;2.53;;;11.50;99.90;;;;;;5118969;27;20564;-68
2021/10/16 01:49:30;;;;;;;9.60;3.08;;;11.50;99.90;;;;;;5137259;27;20051;-68
2021/10/16 01:51:56;;;;;;;11.80;3.05;;;11.40;99.90;;;;;;5136920;27;20537;-66
2021/10/16 01:54:21;;;;;;;14.07;3.22;;;11.40;99.90;;;;;;5118600;27;20031;-66
2021/10/16 01:56:47;;;;;;;13.10;2.92;;;11.50;99.90;;;;;;5101510;27;20027;-67
2021/10/16 01:59:35;;;;;;;9.80;3.15;;;11.50;99.90;;;;;;5118888;27;20055;-67
2021/10/16 02:02:01;;;;;;;9.13;3.03;;;11.50;99.90;;;;;;5118981;27;20035;-69
2021/10/16 02:04:26;;;;;;;10.07;2.83;;;11.50;99.90;;;;;;5118331;27;20035;-69
2021/10/16 02:06:52;;;;;;;10.30;3.00;;;11.50;99.90;;;;;;5136569;27;20035;-71
2021/10/16 02:09:18;;;;;;;9.15;3.28;;;11.50;99.90;;;;;;5136873;27;20035;-69
2021/10/16 02:11:43;;;;;;;7.47;2.53;;;11.50;99.90;;;;;;5118268;27;20473;-67
2021/10/16 02:14:09;;;;;;;10.20;2.40;;;11.60;99.90;;;;;;5118253;27;20023;-68
2021/10/16 02:16:36;;;;;;;12.18;4.88;;;11.60;99.90;;;;;;5136538;27;20055;-66
2021/10/16 02:19:02;;;;;;;13.32;2.85;;;11.60;99.90;;;;;;5118004;27;20020;-67
2021/10/16 02:21:28;;;;;;;11.07;2.92;;;11.60;99.90;;;;;;5136332;27;20378;-68
2021/10/16 02:23:54;;;;;;;9.32;2.30;;;11.50;99.90;;;;;;5117818;27;20035;-67
2021/10/16 02:26:20;;;;;;;7.38;2.33;;;11.50;99.90;;;;;;5135020;27;20099;-69
2021/10/16 02:28:45;;;;;;;12.43;3.78;;;11.50;99.90;;;;;;5134952;27;20076;-67
2021/10/16 02:31:11;;;;;;;11.95;2.70;;;11.50;99.90;;;;;;5134196;27;20076;-67
2021/10/16 02:33:37;;;;;;;9.95;3.08;;;11.60;99.90;;;;;;5100972;27;20031;-67
2021/10/16 02:36:03;;;;;;;11.57;3.28;;;11.60;99.90;;;;;;5134970;27;20076;-68
2021/10/16 02:38:28;;;;;;;6.20;2.58;;;11.50;99.90;;;;;;5134880;27;20015;-69
2021/10/16 02:40:54;;;;;;;5.43;2.25;;;11.60;99.90;;;;;;5117733;27;20035;-68
2021/10/16 02:43:20;;;;;;;5.82;1.98;;;11.60;99.90;;;;;;5134845;27;20023;-67
2021/10/16 02:45:45;;;;;;;7.63;2.95;;;11.50;99.90;;;;;;5117383;27;20560;-69
2021/10/16 02:48:11;;;;;;;8.38;2.45;;;11.60;99.90;;;;;;5136013;27;20381;-67
2021/10/16 02:50:36;;;;;;;7.20;2.22;;;11.60;99.90;;;;;;5117435;27;20034;-67
2021/10/16 02:53:02;;;;;;;9.15;1.92;;;11.60;99.90;;;;;;5135909;27;20028;-68
2021/10/16 02:55:28;;;;;;;10.50;2.78;;;11.60;99.90;;;;;;5134475;27;20030;-67
2021/10/16 02:57:53;;;;;;;7.32;2.22;;;11.60;99.90;;;;;;5134471;27;20012;-67
2021/10/16 03:00:19;;;;;;;5.72;2.72;;;11.60;99.90;;;;;;5117368;27;20035;-67
2021/10/16 03:02:45;;;;;;;6.18;2.13;;;11.50;99.90;;;;;;5117243;27;20423;-69
2021/10/16 03:05:10;;;;;;;10.85;3.40;;;11.60;99.90;;;;;;5134420;27;20389;-68
2021/10/16 03:07:36;;;;;;;8.43;3.00;;;11.60;99.90;;;;;;5117164;27;20039;-67
2021/10/16 03:10:02;;;;;;;11.02;2.17;;;11.60;99.90;;;;;;5134207;27;20030;-67
2021/10/16 03:12:28;;;;;;;6.10;1.98;;;11.50;99.90;;;;;;5135703;27;20027;-68
2021/10/16 03:14:53;;;;;;;10.85;2.40;;;11.50;99.90;;;;;;5133994;27;20034;-68
2021/10/16 03:17:19;;;;;;;13.50;2.88;;;11.50;99.90;;;;;;5117227;27;20485;-68
2021/10/16 03:19:45;;;;;;;8.00;2.67;;;11.40;99.90;;;;;;5117013;27;20035;-67
2021/10/16 03:22:11;;;;;;;7.20;2.53;;;11.40;99.90;;;;;;5133935;27;20110;-68
2021/10/16 03:24:38;;;;;;;10.55;2.05;;;11.30;99.90;;;;;;5116802;27;20050;-66
2021/10/16 03:27:04;;;;;;;6.85;2.17;;;11.20;99.90;;;;;;5116922;27;20035;-68
2021/10/16 03:29:30;;;;;;;7.38;2.67;;;11.10;99.90;;;;;;5135345;27;20330;-67
2021/10/16 03:31:56;;;;;;;6.93;2.25;;;11.00;99.90;;;;;;5117149;27;20031;-67
2021/10/16 03:34:22;;;;;;;8.60;2.25;;;10.90;99.90;;;;;;5135028;27;20015;-66
2021/10/16 03:36:47;;;;;;;5.80;2.42;;;10.80;99.90;;;;;;5117294;27;20118;-67
2021/10/16 03:39:13;;;;;;;6.68;2.65;;;10.60;99.90;;;;;;5117042;27;20023;-67
2021/10/16 03:41:38;;;;;;;5.22;2.38;;;10.50;99.90;;;;;;5116910;27;20107;-67
2021/10/16 03:44:04;;;;;;;9.52;2.30;;;10.40;99.90;;;;;;5099564;27;20586;-67
2021/10/16 03:46:30;;;;;;;10.95;3.05;;;10.30;99.90;;;;;;5133796;27;20039;-68
2021/10/16 03:48:55;;;;;;;7.18;2.53;;;10.30;99.90;;;;;;5099575;27;20059;-68
2021/10/16 03:51:21;;;;;;;11.90;3.03;;;10.20;99.90;;;;;;5116393;27;20097;-68
2021/10/16 03:53:47;;;;;;;7.20;2.40;;;10.10;99.90;;;;;;5099403;27;20047;-67
2021/10/16 03:56:13;;;;;;;10.98;2.88;;;10.00;99.90;;;;;;5116507;27;20533;-68
2021/10/16 03:58:38;;;;;;;7.68;2.70;;;9.90;99.90;;;;;;5099383;27;20027;-68
2021/10/16 04:01:04;;;;;;;6.68;3.00;;;9.80;99.90;;;;;;5116251;27;20122;-68
2021/10/16 04:03:31;;;;;;;10.07;2.80;;;9.70;99.90;;;;;;5116113;27;20065;-71
2021/10/16 04:05:57;;;;;;;11.27;2.63;;;9.70;99.90;;;;;;5099141;27;20039;-71
2021/10/16 04:08:22;;;;;;;7.03;2.45;;;9.60;99.90;;;;;;5116047;27;20012;-70
2021/10/16 04:10:48;;;;;;;7.18;2.42;;;9.60;99.90;;;;;;5115953;27;20019;-70
2021/10/16 04:13:14;;;;;;;6.90;2.10;;;9.60;99.90;;;;;;5115967;27;20012;-70
2021/10/16 04:15:40;;;;;;;5.15;2.28;;;9.60;99.90;;;;;;5115785;27;20053;-71
2021/10/16 04:18:06;;;;;;;8.45;2.70;;;9.50;99.90;;;;;;5134196;27;20439;-70
2021/10/16 04:20:32;;;;;;;8.68;2.80;;;9.40;99.90;;;;;;5133580;27;20027;-72
2021/10/16 04:22:58;;;;;;;6.43;2.75;;;9.40;99.90;;;;;;5115910;27;20045;-74
2021/10/16 04:25:24;;;;;;;5.72;2.35;;;9.40;99.90;;;;;;5132912;27;20011;-72
2021/10/16 04:27:50;;;;;;;9.50;2.20;;;9.40;99.90;;;;;;5134368;27;20027;-74
2021/10/16 04:30:16;;;;;;;7.68;2.75;;;9.40;99.90;;;;;;5133070;27;20023;-73
2021/10/16 04:32:41;;;;;;;6.50;1.92;;;9.40;99.90;;;;;;5133998;27;20488;-75
2021/10/16 04:35:08;;;;;;;12.00;2.95;;;9.40;99.90;;;;;;5115962;28;20023;-71
2021/10/16 04:37:35;;;;;;;11.27;4.18;;;9.40;99.90;;;;;;5132850;27;20055;-68
2021/10/16 04:40:17;;;;;;;6.65;2.03;;;9.40;99.90;;;;;;5098969;28;20058;-68
2021/10/16 04:42:44;;;;;;;8.48;2.60;;;9.40;99.90;;;;;;5133498;28;20470;-67
2021/10/16 04:45:10;;;;;;;7.53;2.58;;;9.50;99.90;;;;;;5115658;28;20019;-66
2021/10/16 04:47:36;;;;;;;8.27;2.90;;;9.50;99.90;;;;;;5132574;27;20039;-67
2021/10/16 04:50:01;;;;;;;6.88;2.95;;;9.50;99.90;;;;;;5115552;28;20458;-69
2021/10/16 04:52:27;;;;;;;4.70;2.17;;;9.60;99.90;;;;;;5115483;27;20059;-67
2021/10/16 04:54:53;;;;;;;9.35;2.55;;;9.60;99.90;;;;;;5102606;27;20087;-67
2021/10/16 04:57:18;;;;;;;8.43;2.63;;;9.60;99.90;;;;;;5138036;27;20481;-68
2021/10/16 04:59:44;;;;;;;6.45;2.60;;;9.70;99.90;;;;;;5136623;27;20035;-67
2021/10/16 05:02:09;;;;;;;7.20;2.50;;;9.70;99.90;;;;;;5102576;27;20092;-65
2021/10/16 05:04:35;;;;;;;10.20;2.13;;;9.80;99.90;;;;;;5136812;27;20042;-70
2021/10/16 05:07:01;;;;;;;5.85;2.20;;;9.80;99.90;;;;;;5119570;27;20035;-69
2021/10/16 05:09:26;;;;;;;10.13;2.42;;;9.80;99.90;;;;;;5119440;27;20362;-77
2021/10/16 05:11:52;;;;;;;7.85;3.30;;;9.80;99.90;;;;;;5136689;27;20054;-75
2021/10/16 05:14:17;;;;;;;8.15;2.30;;;9.90;99.90;;;;;;5136700;27;20103;-72
2021/10/16 05:16:43;;;;;;;5.72;2.28;;;9.80;99.90;;;;;;5137810;27;20386;-71
2021/10/16 05:19:08;;;;;;;10.13;2.80;;;9.90;99.90;;;;;;5136765;27;20023;-68
2021/10/16 05:21:34;;;;;;;6.65;2.33;;;9.90;99.90;;;;;;5136383;27;20023;-70
2021/10/16 05:24:00;;;;;;;9.73;2.78;;;10.00;99.90;;;;;;5137490;27;20039;-70
2021/10/16 05:26:26;;;;;;;8.25;2.33;;;10.00;99.90;;;;;;5136401;27;20114;-71
2021/10/16 05:28:55;;;;;;;12.65;2.45;;;10.00;99.90;;;;;;5136330;27;20167;-71
2021/10/16 05:31:20;;;;;;;6.38;2.70;;;10.10;99.90;;;;;;5136259;27;20023;-72
2021/10/16 05:33:46;;;;;;;6.22;2.35;;;10.10;99.90;;;;;;5118752;27;20028;-69
2021/10/16 05:36:11;;;;;;;9.98;2.50;;;10.10;99.90;;;;;;5119256;27;20058;-66
2021/10/16 05:38:37;;;;;;;15.35;4.47;;;10.20;99.90;;;;;;5118923;27;20027;-67
2021/10/16 05:41:03;;;;;;;8.45;2.95;;;10.20;99.90;;;;;;5135991;27;20088;-66
2021/10/16 05:43:28;;;;;;;6.60;3.13;;;10.20;99.90;;;;;;5135881;27;20039;-66
2021/10/16 05:45:54;;;;;;;9.70;2.83;;;10.30;99.90;;;;;;5118478;27;20020;-67
2021/10/16 05:48:20;;;;;;;9.95;4.00;;;10.30;99.90;;;;;;5135813;27;20027;-69
2021/10/16 05:50:45;;;;;;;7.78;2.33;;;10.30;99.90;;;;;;5135941;27;20027;-72
2021/10/16 05:53:11;;;;;;;9.88;2.25;;;10.40;99.90;;;;;;5135819;27;20034;-67
2021/10/16 05:55:37;;;;;;;8.88;2.55;;;10.40;99.90;;;;;;5118558;27;20515;-67
2021/10/16 05:58:02;;;;;;;7.15;3.17;;;10.40;99.90;;;;;;5101439;27;20056;-66
2021/10/16 06:00:28;;;;;;;17.02;3.17;;;10.50;99.90;;;;;;5118473;27;20072;-67
2021/10/16 06:02:53;;;;;;;6.68;2.20;;;10.50;99.90;;;;;;5118564;27;20322;-67
2021/10/16 06:05:19;;;;;;;10.77;3.00;;;10.60;99.90;;;;;;5134391;27;20034;-67
2021/10/16 06:07:45;;;;;;;12.10;2.75;;;10.60;99.90;;;;;;5118550;27;20031;-68
2021/10/16 06:10:11;;;;;;;6.80;3.40;;;10.60;99.90;;;;;;5118574;27;20373;-69
2021/10/16 06:12:36;;;;;;;7.45;2.10;;;10.60;99.90;;;;;;5135478;27;20027;-66
2021/10/16 06:15:02;;;;;;;18.20;3.08;;;10.60;99.90;;;;;;5118602;27;20413;-67
2021/10/16 06:17:28;;;;;;;8.40;2.58;;;10.60;99.90;;;;;;5136632;27;20473;-68
2021/10/16 06:19:55;;;;;;;9.27;2.83;;;10.60;99.90;;;;;;5118266;27;20027;-69
2021/10/16 06:22:20;;;;;;;8.27;2.70;;;10.60;99.90;;;;;;5137042;27;20375;-69
2021/10/16 06:24:46;;;;;;;4.93;2.00;;;10.60;99.90;;;;;;5101561;27;20050;-69
2021/10/16 06:27:11;;;;;;;7.85;3.60;;;10.50;99.90;;;;;;5136646;27;20548;-68
2021/10/16 06:29:37;;;;;;;10.20;2.20;;;10.60;99.90;;;;;;5118167;27;20024;-66
2021/10/16 06:32:03;;;;;;;9.07;2.05;;;10.50;99.90;;;;;;5137099;27;20023;-68
2021/10/16 06:34:29;;;;;;;6.22;2.15;;;10.60;99.90;;;;;;5118069;27;20023;-69
2021/10/16 06:36:54;;;;;;;11.18;2.22;;;10.60;99.90;;;;;;5101246;27;20031;-67
2021/10/16 06:39:20;;;;;;;9.45;2.53;;;10.60;99.90;;;;;;5135227;27;20025;-67
2021/10/16 06:41:45;;;;;;;6.97;2.20;;;10.70;99.90;;;;;;5117781;27;20023;-68
2021/10/16 06:44:11;;;;;;;7.82;2.13;;;10.70;99.90;;;;;;5136554;27;20386;-66
2021/10/16 06:46:36;;;;;;;13.25;2.58;;;10.70;99.90;;;;;;5135191;27;20050;-68
2021/10/16 06:49:02;;;;;;;10.15;3.97;;;10.70;99.90;;;;;;5118141;27;20023;-67
2021/10/16 06:51:28;;;;;;;8.10;2.30;;;10.80;99.90;;;;;;5118297;27;20029;-67
2021/10/16 06:53:54;;;;;;;7.93;1.95;;;10.80;99.90;;;;;;5134625;27;20098;-69
2021/10/16 06:56:19;;;;;;;6.50;2.25;;;10.80;99.90;;;;;;5134589;27;20027;-68
2021/10/16 06:58:45;;;;;;;10.77;3.30;;;10.90;99.90;;;;;;5135850;27;20106;-67
2021/10/16 07:01:10;;;;;;;11.75;2.17;;;10.90;99.90;;;;;;5117524;27;20426;-68
2021/10/16 07:03:36;;;;;;;9.00;2.35;;;10.90;99.90;;;;;;5135906;27;20076;-67
2021/10/16 07:06:01;;;;;;;8.73;2.30;;;11.10;99.90;;;;;;5134523;27;20040;-66
2021/10/16 07:08:29;;;;;;;6.60;2.28;;;11.00;99.90;;;;;;5100345;27;20046;-67
2021/10/16 07:10:58;;;;;;;11.98;2.22;;;11.00;99.90;;;;;;5134484;27;20043;-67
2021/10/16 07:13:24;;;;;;;11.32;2.45;;;11.10;99.90;;;;;;5134469;27;20023;-67
2021/10/16 07:15:50;;;;;;;11.27;2.13;;;11.20;99.90;;;;;;5134304;27;20022;-68
2021/10/16 07:18:16;;;;;;;10.43;2.35;;;11.20;99.90;;;;;;5117127;27;20031;-67
2021/10/16 07:20:41;;;;;;;14.57;3.20;;;11.20;99.90;;;;;;5116972;27;20479;-66
2021/10/16 07:23:07;;;;;;;8.80;2.70;;;11.30;99.90;;;;;;5134026;27;20066;-68
2021/10/16 07:25:33;;;;;;;17.67;3.08;;;11.30;99.90;;;;;;5117452;27;20118;-68
2021/10/16 07:27:58;;;;;;;8.05;2.10;;;11.40;99.90;;;;;;5117310;27;20100;-66
2021/10/16 07:30:24;;;;;;;10.68;2.97;;;11.40;99.90;;;;;;5134598;27;20034;-66
2021/10/16 07:32:50;;;;;;;7.68;2.58;;;11.40;99.90;;;;;;5134357;27;20031;-65
2021/10/16 07:35:16;;;;;;;7.75;3.10;;;11.50;99.90;;;;;;5134863;27;20019;-67
2021/10/16 07:37:42;;;;;;;7.45;2.60;;;11.50;99.90;;;;;;5135671;27;20031;-66
2021/10/16 07:40:08;;;;;;;4.88;1.85;;;11.60;99.90;;;;;;5136406;27;20088;-68
2021/10/16 07:42:34;;;;;;;13.95;2.60;;;11.60;99.90;;;;;;5117162;27;20499;-74
2021/10/16 07:44:59;;;;;;;6.68;2.50;;;11.70;99.90;;;;;;5135310;27;20028;-68
2021/10/16 07:47:27;;;;;;;10.18;1.83;;;11.70;99.90;;;;;;5117132;27;20031;-67
2021/10/16 07:49:53;;;;;;;6.65;2.78;;;11.80;99.90;;;;;;5133959;27;20115;-67
2021/10/16 07:52:20;;;;;;;8.13;2.33;;;11.80;99.90;;;;;;5133944;27;20034;-68
2021/10/16 07:54:45;;;;;;;10.40;2.95;;;11.80;99.90;;;;;;5133756;27;20023;-70
2021/10/16 07:57:11;;;;;;;5.38;1.95;;;11.80;99.90;;;;;;5116598;27;20393;-68
2021/10/16 07:59:36;;;;;;;10.98;2.45;;;11.80;99.90;;;;;;5133747;27;20098;-68
2021/10/16 08:02:02;;;;;;;8.43;2.50;;;11.80;99.90;;;;;;5135143;27;20397;-67
2021/10/16 08:04:28;;;;;;;7.07;2.65;;;11.90;99.90;;;;;;5133562;27;20027;-71
2021/10/16 08:06:54;;;;;;;9.27;2.67;;;12.00;99.90;;;;;;5116444;27;20548;-69
2021/10/16 08:09:19;;;;;;;14.32;2.72;;;12.10;99.90;;;;;;5099638;27;20040;-69
2021/10/16 08:11:45;;;;;;;12.45;2.80;;;12.20;99.90;;;;;;5133542;27;20023;-68
2021/10/16 08:14:10;;;;;;;10.27;2.65;;;12.30;99.90;;;;;;5116034;27;20110;-69
2021/10/16 08:16:36;;;;;;;8.13;2.47;;;12.40;99.90;;;;;;5133410;27;20023;-70
2021/10/16 08:19:02;;;;;;;9.02;2.20;;;12.50;99.90;;;;;;5116014;27;20020;-70
2021/10/16 08:21:27;;;;;;;12.63;2.40;;;12.70;99.90;;;;;;5099164;27;20027;-69
2021/10/16 08:23:53;;;;;;;12.00;2.75;;;12.80;99.90;;;;;;5133130;27;20051;-68
2021/10/16 08:26:19;;;;;;;8.23;2.42;;;13.00;99.90;;;;;;5133098;27;20043;-70
2021/10/16 08:28:44;;;;;;;9.23;2.80;;;13.10;99.90;;;;;;5133035;27;20076;-68
2021/10/16 08:31:10;;;;;;;8.52;2.03;;;13.20;99.90;;;;;;5116064;27;20503;-69
2021/10/16 08:33:37;;;;;;;7.00;2.80;;;13.20;99.90;;;;;;5133018;28;20091;-69
2021/10/16 08:36:04;;;;;;;5.30;2.53;;;13.30;99.90;;;;;;5133140;27;20049;-69
2021/10/16 08:38:30;;;;;;;5.28;2.50;;;13.30;99.90;;;;;;5116423;28;20030;-70
2021/10/16 08:40:55;;;;;;;7.45;2.13;;;13.40;99.90;;;;;;5133337;28;20023;-69
2021/10/16 08:43:21;;;;;;;9.45;3.15;;;13.40;99.90;;;;;;5116018;28;20027;-68
2021/10/16 08:45:47;;;;;;;7.28;2.95;;;13.40;99.90;;;;;;5115736;28;20474;-68
2021/10/16 08:48:15;;;;;;;21.30;3.03;;;13.50;99.90;;;;;;5133295;28;20465;-67
2021/10/16 08:50:41;;;;;;;9.70;3.13;;;13.50;99.90;;;;;;5116109;28;20110;-69
2021/10/16 08:53:07;;;;;;;7.50;2.40;;;13.50;99.90;;;;;;5132988;28;20429;-72
2021/10/16 08:55:32;;;;;;;11.57;2.05;;;13.50;99.90;;;;;;5115804;28;20032;-72
2021/10/16 08:57:58;;;;;;;12.23;3.05;;;13.50;99.90;;;;;;5098808;28;20493;-70
2021/10/16 09:00:58;;;;;;;7.60;2.65;;;13.60;99.90;;;;;;5132886;27;20481;-69
2021/10/16 09:03:29;;;;;;;7.70;2.05;;;13.60;99.90;;;;;;5132496;28;20118;-70
2021/10/16 09:06:07;;;;;;;10.00;2.25;;;13.60;99.90;;;;;;5134456;27;20023;-69
2021/10/16 09:08:34;;;;;;;7.60;2.13;;;13.70;99.90;;;;;;5133378;28;20015;-71
2021/10/16 09:11:19;;;;;;;13.05;2.05;;;13.70;99.90;;;;;;5134230;27;20489;-69
2021/10/16 09:14:05;;;;;;;6.65;1.83;;;13.70;99.90;;;;;;5133129;28;20024;-70
2021/10/16 09:16:37;;;;;;;6.15;2.03;;;13.90;99.90;;;;;;5116452;28;20529;-69
2021/10/16 09:19:27;;;;;;;7.50;2.42;;;14.00;99.90;;;;;;5133582;27;20396;-68
2021/10/16 09:22:06;;;;;;;12.52;2.85;;;14.10;99.90;;;;;;5115907;28;20511;-68
2021/10/16 09:24:34;;;;;;;13.80;2.55;;;14.10;99.90;;;;;;5133121;28;20054;-70
2021/10/16 09:27:05;;;;;;;8.63;2.80;;;14.30;99.90;;;;;;5099522;28;20099;-70
2021/10/16 09:29:33;;;;;;;8.75;2.80;;;14.30;99.90;;;;;;5133015;28;20030;-70
2021/10/16 09:32:04;;;;;;;10.48;2.72;;;14.40;99.90;;;;;;5132957;28;20075;-74
2021/10/16 09:34:32;;;;;;;10.23;2.63;;;14.50;99.90;;;;;;5133441;28;20031;-69
2021/10/16 09:37:08;;;;;;;6.97;2.38;;;14.60;99.90;;;;;;5135155;27;20031;-69
2021/10/16 09:39:35;;;;;;;12.80;2.85;;;14.70;99.90;;;;;;5134456;27;20031;-69
2021/10/16 09:42:01;;;;;;;13.02;2.92;;;14.70;99.90;;;;;;5120040;27;20027;-70
2021/10/16 09:44:29;;;;;;;7.65;2.22;;;14.70;99.90;;;;;;5119287;27;20019;-69
2021/10/16 09:47:15;;;;;;;9.40;2.10;;;14.80;99.90;;;;;;5119104;27;20032;-72
2021/10/16 09:49:53;;;;;;;7.05;1.92;;;14.80;99.90;;;;;;5119458;27;20018;-70
2021/10/16 09:52:20;;;;;;;11.10;2.88;;;14.80;99.90;;;;;;5119164;27;20489;-69
2021/10/16 09:54:48;;;;;;;12.40;2.30;;;14.80;99.90;;;;;;5118726;27;20020;-68
2021/10/16 09:57:15;;;;;;;8.80;2.30;;;14.80;99.90;;;;;;5136172;27;20583;-69
2021/10/16 09:59:42;;;;;;;8.00;1.65;;;14.80;99.90;;;;;;5136002;27;20023;-68
2021/10/16 10:02:09;;;;;;;7.05;2.03;;;14.80;99.90;;;;;;5136359;27;20019;-72
2021/10/16 10:04:41;;;;;;;7.95;1.77;;;14.80;99.90;;;;;;5135952;27;20031;-68
2021/10/16 10:07:08;;;;;;;8.60;1.80;;;14.80;99.90;;;;;;5118391;27;20393;-69
2021/10/16 10:09:35;;;;;;;4.00;1.50;;;14.70;99.90;;;;;;5118692;27;20064;-68
2021/10/16 10:12:02;;;;;;;12.40;1.98;;;14.70;99.90;;;;;;5136380;27;20027;-68
2021/10/16 10:14:28;;;;;;;11.75;1.50;;;14.70;99.90;;;;;;5135823;27;20015;-69
2021/10/16 10:17:00;;;;;;;6.93;2.70;;;14.70;99.90;;;;;;5135684;27;20035;-69
2021/10/16 10:19:28;;;;;;;7.00;1.70;;;14.70;99.90;;;;;;5135715;27;20015;-70
2021/10/16 10:21:54;;;;;;;9.20;2.30;;;14.90;99.90;;;;;;5135538;27;20026;-68
2021/10/16 10:24:19;;;;;;;6.75;1.73;;;14.90;99.90;;;;;;5101604;27;20447;-70
2021/10/16 10:26:46;;;;;;;11.77;2.63;;;14.90;99.90;;;;;;5118480;27;20050;-70
2021/10/16 10:29:16;;;;;;;6.35;1.90;;;15.00;99.90;;;;;;5118325;27;20019;-69
2021/10/16 10:31:44;;;;;;;5.70;1.75;;;15.10;99.90;;;;;;5118406;27;20382;-68
2021/10/16 10:34:12;;;;;;;10.68;2.20;;;15.20;99.90;;;;;;5136221;27;20470;-69
2021/10/16 10:36:47;;;;;;;9.55;1.80;;;15.20;99.90;;;;;;5118119;27;20034;-69
2021/10/16 10:39:33;;;;;;;7.10;1.60;;;15.30;99.90;;;;;;5136582;27;20053;-69
2021/10/16 10:42:12;;;;;;;12.13;2.55;;;15.30;99.90;;;;;;5134926;27;20034;-72
2021/10/16 10:44:41;;;;;;;7.80;2.17;;;15.40;99.90;;;;;;5136071;27;20026;-71
2021/10/16 10:47:29;;;;;;;10.07;1.90;;;15.50;99.90;;;;;;5117698;27;20050;-70
2021/10/16 10:49:57;;;;;;;8.25;2.53;;;15.60;99.90;;;;;;5117943;27;20023;-70
2021/10/16 10:52:25;;;;;;;10.10;2.33;;;15.60;99.90;;;;;;5134430;27;20569;-69
2021/10/16 10:55:06;;;;;;;8.48;2.05;;;15.50;99.90;;;;;;5117971;27;20054;-70
2021/10/16 10:58:01;;;;;;;8.30;1.50;;;15.50;99.90;;;;;;5135919;27;20063;-72
2021/10/16 11:00:31;;;;;;;9.35;1.58;;;15.50;99.90;;;;;;5119218;27;20019;-71
2021/10/16 11:02:56;;;;;;;10.00;1.67;;;15.70;99.90;;;;;;5135985;27;20019;-68
2021/10/16 11:05:34;;;;;;;9.23;1.23;;;15.90;99.90;;;;;;5134736;27;20025;-70
2021/10/16 11:08:12;;;;;;;8.32;2.75;;;16.20;99.90;;;;;;5136159;27;20431;-68
2021/10/16 11:10:39;;;;;;;6.63;1.40;;;16.50;99.90;;;;;;5117487;27;20469;-70
2021/10/16 11:13:12;;;;;;;10.15;1.85;;;16.80;99.90;;;;;;5134448;27;20457;-68
2021/10/16 11:15:43;;;;;;;7.88;1.45;;;17.20;99.90;;;;;;5134676;27;20019;-71
2021/10/16 11:18:14;;;;;;;7.93;1.55;;;17.50;99.90;;;;;;5117205;27;20469;-70
2021/10/16 11:20:40;;;;;;;6.82;1.80;;;17.90;99.90;;;;;;5117062;27;20054;-69
2021/10/16 11:23:20;;;;;;;7.22;1.73;;;18.10;99.30;;;;;;5133994;27;20015;-70
2021/10/16 11:25:56;;;;;;;5.85;1.63;;;18.20;98.60;;;;;;5134016;27;20327;-70
2021/10/16 11:28:22;;;;;;;6.22;1.65;;;18.20;98.50;;;;;;5117571;27;20027;-69
2021/10/16 11:30:49;;;;;;;8.85;2.30;;;18.30;98.40;;;;;;5137112;27;20098;-73
2021/10/16 11:33:23;;;;;;;3.30;1.30;;;18.50;98.60;;;;;;5124583;27;20031;-73
2021/10/16 11:35:52;;;;;;;4.63;1.40;;;18.50;97.90;;;;;;5139576;27;20015;-76
2021/10/16 11:38:20;;;;;;;4.22;1.48;;;18.60;95.90;;;;;;5122433;27;20030;-75
2021/10/16 11:40:46;;;;;;;6.93;1.92;;;18.70;95.70;;;;;;5122679;27;20023;-74
2021/10/16 11:43:17;;;;;;;7.45;1.33;;;18.90;95.70;;;;;;5144603;27;20029;-72
2021/10/16 11:45:45;;;;;;;10.55;2.55;;;18.90;94.80;;;;;;5125113;27;20023;-78
2021/10/16 11:48:13;;;;;;;7.80;1.30;;;18.70;94.60;;;;;;5136831;27;20019;-79
2021/10/16 11:50:44;;;;;;;3.25;1.02;;;18.50;94.90;;;;;;5135451;27;20063;-77
2021/10/16 11:53:14;;;;;;;5.85;1.60;;;18.20;95.00;;;;;;5135942;27;20026;-73
2021/10/16 11:55:48;;;;;;;7.13;2.97;;;17.90;95.60;;;;;;5135141;27;20023;-75
2021/10/16 11:58:20;;;;;;;6.07;1.25;;;17.50;95.90;;;;;;5134977;27;20023;-79
2021/10/16 12:00:51;;;;;;;5.43;1.13;;;17.30;96.30;;;;;;5134125;27;20019;-73
2021/10/16 12:03:19;;;;;;;4.82;1.20;;;17.00;96.20;;;;;;5133138;27;20109;-69
2021/10/16 12:05:50;;;;;;;3.83;1.40;;;16.80;96.30;;;;;;5116226;27;20488;-69
2021/10/16 12:08:30;;;;;;;5.47;1.00;;;16.70;97.20;;;;;;5116743;27;20019;-71
2021/10/16 12:10:57;;;;;;;9.90;1.55;;;16.50;97.40;;;;;;5133543;27;20546;-70
2021/10/16 12:13:38;;;;;;;7.20;1.45;;;16.40;97.70;;;;;;5134727;27;20023;-69
2021/10/16 12:16:19;;;;;;;3.92;1.55;;;16.50;97.90;;;;;;5116402;27;20027;-69
2021/10/16 12:18:59;;;;;;;7.05;1.38;;;16.50;97.50;;;;;;5133509;27;20047;-68
2021/10/16 12:21:30;;;;;;;3.75;0.98;;;16.50;97.00;;;;;;5116358;27;20029;-70
2021/10/16 12:24:01;;;;;;;7.97;1.52;;;16.60;96.90;;;;;;5132983;27;20079;-68
2021/10/16 12:26:28;;;;;;;12.00;1.27;;;16.70;96.80;;;;;;5116276;28;20110;-70
2021/10/16 12:28:55;;;;;;;6.90;1.35;;;16.70;96.70;;;;;;5133455;27;20076;-70
2021/10/16 12:31:21;;;;;;;4.38;1.60;;;16.70;96.40;;;;;;5117093;27;20031;-69
2021/10/16 12:34:19;;;;;;;8.73;1.20;;;16.70;97.10;;;;;;5134217;27;20110;-70
2021/10/16 12:36:52;;;;;;;4.72;1.30;;;16.70;96.90;;;;;;5104086;28;20121;-70
2021/10/16 12:39:36;;;;;;;8.82;2.00;;;16.70;96.60;;;;;;5134018;27;20433;-71
2021/10/16 12:42:14;;;;;;;5.30;1.73;;;16.60;96.50;;;;;;5115970;28;20024;-69
2021/10/16 12:44:50;;;;;;;6.68;1.45;;;16.70;96.50;;;;;;5115763;28;20027;-70
2021/10/16 12:47:35;;;;;;;5.60;1.55;;;16.60;96.80;;;;;;5132980;27;20485;-70
2021/10/16 12:50:05;;;;;;;6.40;1.35;;;16.70;96.90;;;;;;5133194;28;20102;-69